Time;durP1;ratioP1;P1;durP2;ratioP2;P2;SDS_P1;SDS_P2;PMS_P1;PMS_P2;Temp;Humidity;BMP_temperature;BMP_pressure;BME280_temperature;BME280_humidity;BME280_pressure;Samples;Min_cycle;Max_cycle;Signal;HPM_P1;HPM_P2
2022/06/21 00:01:14;;;;;;;;;;;23.70;73.50;;;;;;5114751;28;20282;-69
2022/06/21 00:03:39;;;;;;;;;;;23.70;73.70;;;;;;5114566;28;19955;-70
2022/06/21 00:06:05;;;;;;;;;;;23.70;73.50;;;;;;5114495;28;19954;-70
2022/06/21 00:08:32;;;;;;;;;;;23.70;74.00;;;;;;5115081;28;19915;-70
2022/06/21 00:10:58;;;;;;;;;;;23.70;73.40;;;;;;5114910;28;19951;-70
2022/06/21 00:13:31;;;;;;;;;;;23.70;73.40;;;;;;5114495;28;19962;-70
2022/06/21 00:15:59;;;;;;;;;;;23.60;73.70;;;;;;5114264;28;20363;-70
2022/06/21 00:18:25;;;;;;;;;;;23.60;73.30;;;;;;5114304;28;19919;-70
2022/06/21 00:20:51;;;;;;;;;;;23.60;73.20;;;;;;5095896;28;19919;-70
2022/06/21 00:23:21;;;;;;;;;;;23.60;73.40;;;;;;5114546;28;19908;-70
2022/06/21 00:25:47;;;;;;;;;;;23.60;73.10;;;;;;5114447;28;19920;-70
2022/06/21 00:28:13;;;;;;;;;;;23.60;72.90;;;;;;5114052;28;20378;-70
2022/06/21 00:30:39;;;;;;;;;;;23.50;73.00;;;;;;5114012;28;19923;-70
2022/06/21 00:33:08;;;;;;;;;;;23.50;73.60;;;;;;5113904;28;20012;-70
2022/06/21 00:35:33;;;;;;;;;;;23.50;73.00;;;;;;5114380;28;19997;-70
2022/06/21 00:37:59;;;;;;;;;;;23.40;72.80;;;;;;5113854;28;20367;-70
2022/06/21 00:40:27;;;;;;;;;;;23.40;72.80;;;;;;5114218;28;20014;-70
2022/06/21 00:42:59;;;;;;;;;;;23.40;73.40;;;;;;5113911;28;20377;-70
2022/06/21 00:45:31;;;;;;;;;;;23.40;72.70;;;;;;5113663;28;19962;-70
2022/06/21 00:47:58;;;;;;;;;;;23.50;72.70;;;;;;5113414;28;19918;-70
2022/06/21 00:50:24;;;;;;;;;;;23.40;72.70;;;;;;5113842;28;19951;-70
2022/06/21 00:52:55;;;;;;;;;;;23.40;72.60;;;;;;5113377;28;20406;-70
2022/06/21 00:55:30;;;;;;;;;;;23.40;72.30;;;;;;5113853;28;19961;-70
2022/06/21 00:57:55;;;;;;;;;;;23.40;72.30;;;;;;5113380;28;19912;-70
2022/06/21 01:00:24;;;;;;;;;;;23.50;72.00;;;;;;5113932;28;19912;-70
2022/06/21 01:02:49;;;;;;;;;;;23.40;72.20;;;;;;5113157;28;19919;-70
2022/06/21 01:05:15;;;;;;;;;;;23.40;72.00;;;;;;5113516;28;19912;-70
2022/06/21 01:07:41;;;;;;;;;;;23.40;72.00;;;;;;5113284;28;19912;-70
2022/06/21 01:10:13;;;;;;;;;;;23.40;71.90;;;;;;5113539;28;19915;-70
2022/06/21 01:12:38;;;;;;;;;;;23.40;71.90;;;;;;5113139;28;19915;-70
2022/06/21 01:15:09;;;;;;;;;;;23.40;71.90;;;;;;5113442;28;20329;-69
2022/06/21 01:17:36;;;;;;;;;;;23.40;71.90;;;;;;5113217;28;19916;-69
2022/06/21 01:20:04;;;;;;;;;;;23.40;71.90;;;;;;5113360;28;19915;-69
2022/06/21 01:22:44;;;;;;;;;;;23.40;71.80;;;;;;5113209;28;19916;-70
2022/06/21 01:25:22;;;;;;;;;;;23.30;71.80;;;;;;5113212;28;19912;-70
2022/06/21 01:27:48;;;;;;;;;;;23.30;71.90;;;;;;5113177;28;19912;-70
2022/06/21 01:30:13;;;;;;;;;;;23.30;71.90;;;;;;5112823;28;19943;-69
2022/06/21 01:32:39;;;;;;;;;;;23.30;71.90;;;;;;5112790;28;19923;-70
2022/06/21 01:35:16;;;;;;;;;;;23.20;71.90;;;;;;5113065;28;19912;-70
2022/06/21 01:37:42;;;;;;;;;;;23.20;71.90;;;;;;5112741;28;20465;-69
2022/06/21 01:40:07;;;;;;;;;;;23.10;72.10;;;;;;5112991;28;20019;-70
2022/06/21 01:42:41;;;;;;;;;;;23.10;72.30;;;;;;5112548;28;19911;-70
2022/06/21 01:45:09;;;;;;;;;;;23.00;72.80;;;;;;5112853;28;20055;-69
2022/06/21 01:47:38;;;;;;;;;;;22.90;72.50;;;;;;5112428;28;19912;-70
2022/06/21 01:50:04;;;;;;;;;;;22.90;72.50;;;;;;5112675;28;20374;-70
2022/06/21 01:52:31;;;;;;;;;;;22.90;72.60;;;;;;5112272;28;20419;-70
2022/06/21 01:55:08;;;;;;;;;;;22.90;72.60;;;;;;5112678;28;19922;-70
2022/06/21 01:57:34;;;;;;;;;;;22.90;72.30;;;;;;5112401;28;19916;-70
2022/06/21 02:00:03;;;;;;;;;;;22.90;72.50;;;;;;5112576;28;19912;-70
2022/06/21 02:02:31;;;;;;;;;;;22.90;72.70;;;;;;5112447;28;19919;-70
2022/06/21 02:04:57;;;;;;;;;;;22.90;72.70;;;;;;5112579;28;19911;-70
2022/06/21 02:07:25;;;;;;;;;;;22.80;72.70;;;;;;5112095;28;19912;-70
2022/06/21 02:10:11;;;;;;;;;;;22.80;73.00;;;;;;5112404;28;19919;-70
2022/06/21 02:12:43;;;;;;;;;;;22.80;72.80;;;;;;5111420;28;20290;-70
2022/06/21 02:15:11;;;;;;;;;;;22.80;72.70;;;;;;5111919;28;19920;-70
2022/06/21 02:17:40;;;;;;;;;;;22.70;72.90;;;;;;5112173;28;20295;-70
2022/06/21 02:20:21;;;;;;;;;;;22.50;72.70;;;;;;5112322;28;20007;-70
2022/06/21 02:22:46;;;;;;;;;;;22.80;73.00;;;;;;5112020;28;20256;-70
2022/06/21 02:25:17;;;;;;;;;;;22.70;73.00;;;;;;5111795;28;19928;-70
2022/06/21 02:27:43;;;;;;;;;;;22.70;73.10;;;;;;5111840;28;19919;-70
2022/06/21 02:30:14;;;;;;;;;;;22.70;73.10;;;;;;5112110;28;19916;-70
2022/06/21 02:32:40;;;;;;;;;;;22.70;73.10;;;;;;5112033;28;20402;-70
2022/06/21 02:35:08;;;;;;;;;;;22.70;73.30;;;;;;5112088;28;19965;-70
2022/06/21 02:37:34;;;;;;;;;;;22.70;73.30;;;;;;5111588;28;20014;-70
2022/06/21 02:40:02;;;;;;;;;;;22.70;73.40;;;;;;5111975;28;19915;-70
2022/06/21 02:42:32;;;;;;;;;;;22.70;73.40;;;;;;5111654;28;19912;-69
2022/06/21 02:45:07;;;;;;;;;;;22.70;73.60;;;;;;5111887;28;19916;-70
2022/06/21 02:47:37;;;;;;;;;;;22.60;73.70;;;;;;5111883;28;19917;-70
2022/06/21 02:50:06;;;;;;;;;;;22.60;73.80;;;;;;5111909;28;20397;-71
2022/06/21 02:52:37;;;;;;;;;;;22.60;74.00;;;;;;5111676;28;19912;-70
2022/06/21 02:55:21;;;;;;;;;;;22.50;74.10;;;;;;5111501;28;20010;-70
2022/06/21 02:57:49;;;;;;;;;;;22.50;74.20;;;;;;5111592;28;19911;-70
2022/06/21 03:00:17;;;;;;;;;;;22.50;74.40;;;;;;5111840;28;19912;-70
2022/06/21 03:02:44;;;;;;;;;;;22.50;74.40;;;;;;5111896;28;19949;-70
2022/06/21 03:05:17;;;;;;;;;;;22.40;74.40;;;;;;5093253;28;19961;-70
2022/06/21 03:07:46;;;;;;;;;;;22.50;75.00;;;;;;5111465;28;19915;-70
2022/06/21 03:10:19;;;;;;;;;;;22.50;74.80;;;;;;5111732;28;19916;-70
2022/06/21 03:12:47;;;;;;;;;;;22.40;75.10;;;;;;5111439;28;19962;-70
2022/06/21 03:15:12;;;;;;;;;;;22.40;75.60;;;;;;5111692;28;19920;-70
2022/06/21 03:17:38;;;;;;;;;;;22.40;75.70;;;;;;5093171;28;19912;-70
2022/06/21 03:20:06;;;;;;;;;;;22.40;75.80;;;;;;5111570;28;19918;-70
2022/06/21 03:22:33;;;;;;;;;;;22.50;75.90;;;;;;5093138;28;19940;-70
2022/06/21 03:24:59;;;;;;;;;;;22.50;75.90;;;;;;5112052;28;19912;-69
2022/06/21 03:27:25;;;;;;;;;;;22.50;76.10;;;;;;5115342;28;19911;-70
2022/06/21 03:29:51;;;;;;;;;;;22.40;76.20;;;;;;5115166;28;20014;-70
2022/06/21 03:32:16;;;;;;;;;;;22.50;76.70;;;;;;5114765;28;20286;-70
2022/06/21 03:34:42;;;;;;;;;;;22.50;76.70;;;;;;5115125;28;19919;-69
2022/06/21 03:37:08;;;;;;;;;;;22.50;76.80;;;;;;5115072;28;19911;-70
2022/06/21 03:42:20;;;;;;;;;;;22.50;77.20;;;;;;5115196;28;20023;-69
2022/06/21 03:45:05;;;;;;;;;;;22.60;77.30;;;;;;5115173;28;20003;-70
2022/06/21 03:47:34;;;;;;;;;;;22.60;77.50;;;;;;5114937;28;20262;-70
2022/06/21 03:50:03;;;;;;;;;;;22.60;77.20;;;;;;5115068;28;20333;-70
2022/06/21 03:52:43;;;;;;;;;;;22.60;77.40;;;;;;5114768;28;19961;-69
2022/06/21 03:55:27;;;;;;;;;;;22.60;77.30;;;;;;5114871;28;19915;-70
2022/06/21 03:58:22;;;;;;;;;;;22.70;77.80;;;;;;5114694;28;19912;-70
2022/06/21 04:00:58;;;;;;;;;;;22.70;77.60;;;;;;5066524;28;19915;-70
2022/06/21 04:03:37;;;;;;;;;;;22.70;77.80;;;;;;5114801;28;19908;-69
2022/06/21 04:06:06;;;;;;;;;;;22.70;78.10;;;;;;5114222;28;19920;-70
2022/06/21 04:08:39;;;;;;;;;;;22.70;77.90;;;;;;5114385;28;20381;-69
2022/06/21 04:11:17;;;;;;;;;;;22.80;78.00;;;;;;5095941;28;19916;-70
2022/06/21 04:13:46;;;;;;;;;;;22.80;77.90;;;;;;5114280;28;19961;-70
2022/06/21 04:16:17;;;;;;;;;;;22.90;78.50;;;;;;5114311;28;19908;-70
2022/06/21 04:18:48;;;;;;;;;;;22.90;78.30;;;;;;5114203;28;19911;-70
2022/06/21 04:21:37;;;;;;;;;;;23.00;78.90;;;;;;5114301;28;20044;-70
2022/06/21 04:24:10;;;;;;;;;;;23.00;78.80;;;;;;5114032;28;19915;-70
2022/06/21 04:26:45;;;;;;;;;;;23.20;78.90;;;;;;5113910;28;19915;-70
2022/06/21 04:29:11;;;;;;;;;;;23.20;78.90;;;;;;5114159;28;19920;-70
2022/06/21 04:32:00;;;;;;;;;;;23.30;78.90;;;;;;5113986;28;19987;-70
2022/06/21 04:34:34;;;;;;;;;;;23.30;78.80;;;;;;5102905;28;20398;-69
2022/06/21 04:37:03;;;;;;;;;;;23.40;78.60;;;;;;5113357;28;19907;-70
2022/06/21 04:39:33;;;;;;;;;;;23.40;78.60;;;;;;5113868;28;19919;-70
2022/06/21 04:42:18;;;;;;;;;;;23.50;78.80;;;;;;5113792;28;20264;-70
2022/06/21 04:44:49;;;;;;;;;;;23.50;79.50;;;;;;5113939;28;20390;-70
2022/06/21 04:47:17;;;;;;;;;;;23.60;79.00;;;;;;5095414;28;19908;-70
2022/06/21 04:49:49;;;;;;;;;;;23.70;78.80;;;;;;5113767;28;20042;-70
2022/06/21 04:52:35;;;;;;;;;;;23.80;79.00;;;;;;5113904;28;19907;-70
2022/06/21 04:55:02;;;;;;;;;;;23.80;79.00;;;;;;5112992;28;19924;-70
2022/06/21 04:57:28;;;;;;;;;;;23.90;79.40;;;;;;5113889;28;19947;-70
2022/06/21 04:59:59;;;;;;;;;;;24.00;79.40;;;;;;5113635;28;20387;-69
2022/06/21 05:02:30;;;;;;;;;;;24.10;78.60;;;;;;5113441;28;19908;-69
2022/06/21 05:05:02;;;;;;;;;;;24.10;78.70;;;;;;5095091;28;19979;-70
2022/06/21 05:07:29;;;;;;;;;;;24.10;78.70;;;;;;5113426;28;20259;-70
2022/06/21 05:09:56;;;;;;;;;;;24.20;79.40;;;;;;5113073;28;19926;-70
2022/06/21 05:12:33;;;;;;;;;;;24.30;79.30;;;;;;5113221;28;19907;-70
2022/06/21 05:15:02;;;;;;;;;;;24.50;79.10;;;;;;5113265;28;20359;-69
2022/06/21 05:17:28;;;;;;;;;;;24.60;79.00;;;;;;5113131;28;20003;-70
2022/06/21 05:19:55;;;;;;;;;;;24.70;79.30;;;;;;5113328;28;19919;-70
2022/06/21 05:22:21;;;;;;;;;;;24.70;78.70;;;;;;5113409;28;19912;-70
2022/06/21 05:24:47;;;;;;;;;;;24.70;78.70;;;;;;5113263;28;19937;-70
2022/06/21 05:27:17;;;;;;;;;;;24.70;78.90;;;;;;5112955;28;19970;-70
2022/06/21 05:29:42;;;;;;;;;;;24.80;79.40;;;;;;5113293;28;20300;-70
2022/06/21 05:32:12;;;;;;;;;;;24.90;79.00;;;;;;5112825;28;19966;-70
2022/06/21 05:34:42;;;;;;;;;;;25.00;79.00;;;;;;5112978;28;20298;-70
2022/06/21 05:37:26;;;;;;;;;;;25.00;79.10;;;;;;5112520;28;19991;-70
2022/06/21 05:39:52;;;;;;;;;;;25.20;78.90;;;;;;5112981;28;19915;-71
2022/06/21 05:42:19;;;;;;;;;;;25.20;79.10;;;;;;5112759;28;19957;-71
2022/06/21 05:44:44;;;;;;;;;;;25.30;79.40;;;;;;5113079;28;19994;-70
2022/06/21 05:47:29;;;;;;;;;;;25.40;78.80;;;;;;5112366;28;19911;-70
2022/06/21 05:49:56;;;;;;;;;;;25.40;79.40;;;;;;5111883;28;19961;-70
2022/06/21 05:52:30;;;;;;;;;;;25.50;79.20;;;;;;5112172;28;19998;-70
2022/06/21 05:55:02;;;;;;;;;;;25.50;79.00;;;;;;5112749;28;20386;-71
2022/06/21 05:57:36;;;;;;;;;;;25.60;79.40;;;;;;5112448;28;19955;-70
2022/06/21 06:00:03;;;;;;;;;;;25.70;79.40;;;;;;5112588;28;20381;-70
2022/06/21 06:02:33;;;;;;;;;;;25.80;79.80;;;;;;5112340;28;20339;-70
2022/06/21 06:05:03;;;;;;;;;;;25.90;79.50;;;;;;5112501;28;19930;-70
2022/06/21 06:07:31;;;;;;;;;;;25.90;79.00;;;;;;5112454;28;20003;-71
2022/06/21 06:09:58;;;;;;;;;;;25.90;80.10;;;;;;5112403;28;19915;-70
2022/06/21 06:12:26;;;;;;;;;;;26.10;79.50;;;;;;5112096;28;19915;-70
2022/06/21 06:14:58;;;;;;;;;;;26.20;79.70;;;;;;5093942;28;19919;-70
2022/06/21 06:17:32;;;;;;;;;;;26.30;78.80;;;;;;5112619;28;19914;-70
2022/06/21 06:20:00;;;;;;;;;;;26.20;78.70;;;;;;5112401;28;20334;-70
2022/06/21 06:22:35;;;;;;;;;;;26.20;79.30;;;;;;5093638;28;20432;-70
2022/06/21 06:25:13;;;;;;;;;;;26.10;79.60;;;;;;5112343;28;19920;-70
2022/06/21 06:27:45;;;;;;;;;;;26.20;79.70;;;;;;5112275;28;20217;-70
2022/06/21 06:30:13;;;;;;;;;;;26.10;80.20;;;;;;5111948;28;19955;-70
2022/06/21 06:32:54;;;;;;;;;;;26.20;80.10;;;;;;5111976;28;19907;-70
2022/06/21 06:35:22;;;;;;;;;;;26.20;80.30;;;;;;5112128;28;20047;-70
2022/06/21 06:37:48;;;;;;;;;;;26.20;81.00;;;;;;5112076;28;19908;-70
2022/06/21 06:40:18;;;;;;;;;;;26.10;80.10;;;;;;5112229;28;19922;-70
2022/06/21 06:42:44;;;;;;;;;;;26.00;81.10;;;;;;5111673;28;19959;-70
2022/06/21 06:45:15;;;;;;;;;;;26.10;81.30;;;;;;5112190;28;19923;-69
2022/06/21 06:47:43;;;;;;;;;;;26.10;81.30;;;;;;5111895;28;20391;-69
2022/06/21 06:50:15;;;;;;;;;;;26.20;80.90;;;;;;5111896;28;19916;-69
2022/06/21 06:52:59;;;;;;;;;;;26.30;81.40;;;;;;5111321;28;19939;-69
2022/06/21 06:55:28;;;;;;;;;;;26.30;81.40;;;;;;5111794;28;20022;-69
2022/06/21 06:58:02;;;;;;;;;;;26.40;81.80;;;;;;5111583;28;19908;-69
2022/06/21 07:00:30;;;;;;;;;;;26.60;82.10;;;;;;5094592;28;19915;-70
2022/06/21 07:03:02;;;;;;;;;;;26.80;81.60;;;;;;5097175;28;19907;-70
2022/06/21 07:05:40;;;;;;;;;;;26.90;81.80;;;;;;5115893;28;19920;-70
2022/06/21 07:08:09;;;;;;;;;;;27.00;81.80;;;;;;5115430;28;19908;-70
2022/06/21 07:10:35;;;;;;;;;;;27.10;81.50;;;;;;5115939;28;19915;-70
2022/06/21 07:13:00;;;;;;;;;;;27.10;81.80;;;;;;5115365;28;19918;-70
2022/06/21 07:15:33;;;;;;;;;;;27.10;82.50;;;;;;5097150;28;20367;-70
2022/06/21 07:17:58;;;;;;;;;;;27.10;82.30;;;;;;5115141;28;19916;-70
2022/06/21 07:20:26;;;;;;;;;;;27.20;82.10;;;;;;5115912;28;20270;-69
2022/06/21 07:22:55;;;;;;;;;;;27.20;82.40;;;;;;5115113;28;19931;-69
2022/06/21 07:25:24;;;;;;;;;;;27.20;82.40;;;;;;5115571;28;20283;-69
2022/06/21 07:27:53;;;;;;;;;;;27.40;83.10;;;;;;5096794;28;19911;-70
2022/06/21 07:30:21;;;;;;;;;;;27.50;83.10;;;;;;5115139;28;19987;-70
2022/06/21 07:32:49;;;;;;;;;;;27.80;82.80;;;;;;5115227;28;20335;-70
2022/06/21 07:35:22;;;;;;;;;;;28.00;82.70;;;;;;5115377;28;20276;-71
2022/06/21 07:37:51;;;;;;;;;;;28.10;81.70;;;;;;5114990;28;19908;-71
2022/06/21 07:40:20;;;;;;;;;;;28.10;82.40;;;;;;5096477;28;19920;-71
2022/06/21 07:42:45;;;;;;;;;;;28.20;81.80;;;;;;5114912;28;19994;-71
2022/06/21 07:45:20;;;;;;;;;;;28.40;81.90;;;;;;5115222;28;19943;-72
2022/06/21 07:48:03;;;;;;;;;;;28.60;81.80;;;;;;5114690;28;20264;-69
2022/06/21 07:50:32;;;;;;;;;;;28.80;82.00;;;;;;5114911;28;19916;-70
2022/06/21 07:52:59;;;;;;;;;;;29.20;81.20;;;;;;5114296;28;19911;-70
2022/06/21 07:55:28;;;;;;;;;;;29.30;80.90;;;;;;5114997;28;19916;-72
2022/06/21 07:57:57;;;;;;;;;;;29.50;81.00;;;;;;5114526;28;20367;-71
2022/06/21 08:00:24;;;;;;;;;;;29.70;80.80;;;;;;5114763;28;19927;-70
2022/06/21 08:08:37;;;;;;;;;;;29.80;80.40;;;;;;5114653;28;20019;-70
2022/06/21 08:11:07;;;;;;;;;;;30.00;80.10;;;;;;5114766;28;19920;-70
2022/06/21 08:13:32;;;;;;;;;;;30.00;79.50;;;;;;5109200;28;20401;-68
2022/06/21 08:16:02;;;;;;;;;;;29.90;80.10;;;;;;5086894;28;19920;-69
2022/06/21 08:18:36;;;;;;;;;;;30.00;79.70;;;;;;5110469;27;19958;-69
2022/06/21 08:21:05;;;;;;;;;;;30.10;79.80;;;;;;5099508;28;20008;-69
2022/06/21 08:23:49;;;;;;;;;;;30.20;79.50;;;;;;5103363;28;19951;-68
2022/06/21 08:26:14;;;;;;;;;;;30.30;79.80;;;;;;5099087;28;19948;-69
2022/06/21 08:28:47;;;;;;;;;;;30.50;79.40;;;;;;5099537;28;20402;-69
2022/06/21 08:31:16;;;;;;;;;;;30.60;79.00;;;;;;5102045;28;20381;-69
2022/06/21 08:33:50;;;;;;;;;;;30.70;78.80;;;;;;5095041;28;19916;-69
2022/06/21 08:36:18;;;;;;;;;;;30.50;78.80;;;;;;5093923;28;20267;-67
2022/06/21 08:38:50;;;;;;;;;;;30.30;78.30;;;;;;5092683;28;19920;-69
2022/06/21 08:44:16;;;;;;;;;;;29.90;79.30;;;;;;5099437;28;19993;-69
2022/06/21 08:47:03;;;;;;;;;;;29.70;80.10;;;;;;5102544;28;20436;-69
2022/06/21 08:49:43;;;;;;;;;;;29.60;80.50;;;;;;5103006;28;19916;-70
2022/06/21 08:52:15;;;;;;;;;;;29.90;80.30;;;;;;5101110;28;19916;-68
2022/06/21 08:54:53;;;;;;;;;;;30.10;79.70;;;;;;5096977;28;19921;-69
2022/06/21 08:57:38;;;;;;;;;;;30.40;79.50;;;;;;5102769;28;19912;-69
2022/06/21 09:00:06;;;;;;;;;;;30.90;78.30;;;;;;5084346;28;20375;-69
2022/06/21 09:02:50;;;;;;;;;;;31.50;78.00;;;;;;5093466;28;19919;-69
2022/06/21 09:05:24;;;;;;;;;;;31.60;76.50;;;;;;5112383;28;19965;-69
2022/06/21 09:07:50;;;;;;;;;;;31.20;76.80;;;;;;5113685;28;19908;-69
2022/06/21 09:10:34;;;;;;;;;;;30.90;76.90;;;;;;5112047;28;20377;-69
2022/06/21 09:13:11;;;;;;;;;;;30.90;77.60;;;;;;5103738;28;19961;-69
2022/06/21 09:15:45;;;;;;;;;;;30.90;77.60;;;;;;5105441;28;20003;-70
2022/06/21 09:18:20;;;;;;;;;;;30.70;77.10;;;;;;5106906;28;19916;-68
2022/06/21 09:20:55;;;;;;;;;;;30.50;77.20;;;;;;5110643;28;19969;-69
2022/06/21 09:23:24;;;;;;;;;;;30.50;77.60;;;;;;5105621;28;19912;-69
2022/06/21 09:26:02;;;;;;;;;;;30.80;76.90;;;;;;5092526;28;19920;-69
2022/06/21 09:28:48;;;;;;;;;;;31.20;76.20;;;;;;5097454;27;20010;-69
2022/06/21 09:31:36;;;;;;;;;;;31.20;75.30;;;;;;5113627;27;19923;-69
2022/06/21 09:34:20;;;;;;;;;;;30.80;76.40;;;;;;5108092;28;19924;-69
2022/06/21 09:36:50;;;;;;;;;;;30.40;76.40;;;;;;5099992;28;19908;-69
2022/06/21 09:39:21;;;;;;;;;;;30.00;77.60;;;;;;5114471;27;19916;-70
2022/06/21 09:41:55;;;;;;;;;;;29.80;78.10;;;;;;5112491;27;20488;-69
2022/06/21 09:44:30;;;;;;;;;;;29.60;78.80;;;;;;5079106;28;20345;-70
2022/06/21 09:47:00;;;;;;;;;;;29.80;78.50;;;;;;5095662;28;19915;-69
2022/06/21 09:49:25;;;;;;;;;;;30.40;77.80;;;;;;5106331;28;19934;-69
2022/06/21 09:52:09;;;;;;;;;;;30.60;76.70;;;;;;5092322;28;19994;-69
2022/06/21 09:54:36;;;;;;;;;;;30.70;77.30;;;;;;5105247;27;19958;-69
2022/06/21 09:57:07;;;;;;;;;;;31.00;76.70;;;;;;5113063;27;20509;-69
2022/06/21 09:59:40;;;;;;;;;;;30.90;75.50;;;;;;5102728;28;19954;-69
2022/06/21 10:02:13;;;;;;;;;;;30.70;76.10;;;;;;5097388;28;19912;-69
2022/06/21 10:04:59;;;;;;;;;;;30.50;76.90;;;;;;5108925;28;19920;-69
2022/06/21 10:07:33;;;;;;;;;;;30.20;77.40;;;;;;5100988;28;20344;-69
2022/06/21 10:10:34;;;;;;;;;;;30.00;78.30;;;;;;5103121;28;20290;-70
2022/06/21 10:13:07;;;;;;;;;;;29.70;78.60;;;;;;5026773;28;19932;-69
2022/06/21 10:15:35;;;;;;;;;;;29.40;79.40;;;;;;5097380;28;19920;-71
2022/06/21 10:18:19;;;;;;;;;;;29.10;79.70;;;;;;5105480;28;19935;-70
2022/06/21 10:21:23;;;;;;;;;;;28.60;82.40;;;;;;5092844;28;19931;-70
2022/06/21 10:23:57;;;;;;;;;;;28.10;84.60;;;;;;5016217;28;20001;-70
2022/06/21 10:26:25;;;;;;;;;;;27.60;86.50;;;;;;5019491;28;19928;-70
2022/06/21 10:29:06;;;;;;;;;;;27.20;87.70;;;;;;5064736;28;19993;-70
2022/06/21 10:31:41;;;;;;;;;;;26.80;89.10;;;;;;5096412;28;19919;-69
2022/06/21 10:34:22;;;;;;;;;;;26.60;90.50;;;;;;5102000;28;19928;-69
2022/06/21 10:37:06;;;;;;;;;;;26.40;91.10;;;;;;5108502;28;19915;-69
2022/06/21 10:39:49;;;;;;;;;;;26.30;91.80;;;;;;5111321;28;19916;-70
2022/06/21 10:45:11;;;;;;;;;;;25.90;92.20;;;;;;5110514;28;19968;-71
2022/06/21 10:47:55;;;;;;;;;;;25.70;92.60;;;;;;5112346;28;19907;-70
2022/06/21 10:50:21;;;;;;;;;;;25.70;93.10;;;;;;5132768;28;19920;-71
2022/06/21 10:53:05;;;;;;;;;;;25.60;93.10;;;;;;5088307;28;20016;-71
2022/06/21 10:55:41;;;;;;;;;;;25.50;93.30;;;;;;5092142;28;20696;-71
2022/06/21 10:58:16;;;;;;;;;;;25.50;93.50;;;;;;5094787;28;19999;-71
2022/06/21 11:03:32;;;;;;;;;;;25.10;94.20;;;;;;5108559;28;19923;-71
2022/06/21 11:06:00;;;;;;;;;;;25.00;94.70;;;;;;5098354;28;19917;-72
2022/06/21 11:08:32;;;;;;;;;;;24.90;95.40;;;;;;5103778;28;19971;-72
2022/06/21 11:11:13;;;;;;;;;;;24.90;95.90;;;;;;5104962;28;19919;-72
2022/06/21 11:13:44;;;;;;;;;;;25.00;96.20;;;;;;5108143;28;20335;-70
2022/06/21 11:16:12;;;;;;;;;;;25.00;96.30;;;;;;5093412;28;19912;-72
2022/06/21 11:18:53;;;;;;;;;;;25.00;96.70;;;;;;5105001;28;20026;-73
2022/06/21 11:21:22;;;;;;;;;;;25.00;97.00;;;;;;5093091;28;19969;-71
2022/06/21 11:24:00;;;;;;;;;;;25.00;97.50;;;;;;5111468;28;19908;-71
2022/06/21 11:26:40;;;;;;;;;;;25.00;98.10;;;;;;5111166;28;20283;-71
2022/06/21 11:29:24;;;;;;;;;;;25.00;99.10;;;;;;5092815;28;19964;-71
2022/06/21 11:32:08;;;;;;;;;;;25.10;99.30;;;;;;5092820;28;19982;-71
2022/06/21 11:34:43;;;;;;;;;;;25.00;99.90;;;;;;5111004;28;19928;-71
2022/06/21 11:37:12;;;;;;;;;;;24.90;99.90;;;;;;5111256;28;19908;-71
2022/06/21 11:39:43;;;;;;;;;;;24.80;99.90;;;;;;5111574;28;19920;-71
2022/06/21 11:42:15;;;;;;;;;;;24.70;99.90;;;;;;5111202;28;20294;-71
2022/06/21 11:44:59;;;;;;;;;;;24.40;99.90;;;;;;5111350;28;19981;-71
2022/06/21 11:47:54;;;;;;;;;;;24.20;99.90;;;;;;5112075;28;19934;-71
2022/06/21 11:50:20;;;;;;;;;;;23.60;99.90;;;;;;5097443;28;19919;-71
2022/06/21 11:52:49;;;;;;;;;;;22.40;99.90;;;;;;5114566;28;20409;-71
2022/06/21 11:55:14;;;;;;;;;;;21.80;99.90;;;;;;5114984;28;19964;-71
2022/06/21 11:57:49;;;;;;;;;;;21.60;99.90;;;;;;5114561;28;19908;-72
2022/06/21 12:00:24;;;;;;;;;;;21.30;99.90;;;;;;5114736;28;19916;-71
2022/06/21 12:02:57;;;;;;;;;;;20.90;99.90;;;;;;5114414;28;19942;-73
2022/06/21 12:05:28;;;;;;;;;;;20.40;99.90;;;;;;5114667;28;19916;-74
2022/06/21 12:08:14;;;;;;;;;;;19.80;99.90;;;;;;5114632;28;19919;-74
2022/06/21 12:10:50;;;;;;;;;;;19.30;99.90;;;;;;5082501;28;19922;-74
2022/06/21 12:13:42;;;;;;;;;;;19.00;99.90;;;;;;5114406;28;19911;-74
2022/06/21 12:16:33;;;;;;;;;;;18.80;99.90;;;;;;5114528;28;19922;-74
2022/06/21 12:19:10;;;;;;;;;;;18.70;99.90;;;;;;5114097;28;20355;-74
2022/06/21 12:21:41;;;;;;;;;;;18.60;99.90;;;;;;5114486;28;19911;-74
2022/06/21 12:24:14;;;;;;;;;;;18.50;99.90;;;;;;5095818;28;20333;-73
2022/06/21 12:26:39;;;;;;;;;;;18.40;99.90;;;;;;5113694;28;19908;-73
2022/06/21 12:29:09;;;;;;;;;;;18.40;99.90;;;;;;5095565;28;19988;-73
2022/06/21 12:31:37;;;;;;;;;;;18.20;99.90;;;;;;5113684;28;20353;-72
2022/06/21 12:34:09;;;;;;;;;;;18.10;99.90;;;;;;5113541;28;20383;-72
2022/06/21 12:36:34;;;;;;;;;;;17.90;99.90;;;;;;5113814;28;20287;-72
2022/06/21 12:39:13;;;;;;;;;;;17.80;99.90;;;;;;5113774;28;19923;-72
2022/06/21 12:41:38;;;;;;;;;;;17.70;99.90;;;;;;5113723;28;19912;-72
2022/06/21 12:44:18;;;;;;;;;;;17.70;99.90;;;;;;5113470;28;19916;-72
2022/06/21 12:46:48;;;;;;;;;;;17.70;99.90;;;;;;5113675;28;19995;-72
2022/06/21 12:49:17;;;;;;;;;;;17.70;99.90;;;;;;5113403;28;19969;-71
2022/06/21 12:51:48;;;;;;;;;;;17.60;99.90;;;;;;5113355;28;19987;-71
2022/06/21 12:54:16;;;;;;;;;;;17.60;99.90;;;;;;5113282;28;20377;-71
2022/06/21 12:56:48;;;;;;;;;;;17.60;99.90;;;;;;5113223;28;20347;-71
2022/06/21 12:59:27;;;;;;;;;;;17.60;99.90;;;;;;5112811;28;19916;-72
2022/06/21 13:01:58;;;;;;;;;;;17.60;99.90;;;;;;5113519;28;19995;-72
2022/06/21 13:04:43;;;;;;;;;;;17.70;99.90;;;;;;5095187;28;19928;-71
2022/06/21 13:07:15;;;;;;;;;;;17.80;99.90;;;;;;5113183;28;19908;-71
2022/06/21 13:09:40;;;;;;;;;;;17.90;99.90;;;;;;5113070;28;19920;-71
2022/06/21 13:12:31;;;;;;;;;;;18.00;99.90;;;;;;5094824;28;19931;-72
2022/06/21 13:15:15;;;;;;;;;;;18.00;99.90;;;;;;5113086;28;19927;-71
2022/06/21 13:17:50;;;;;;;;;;;18.10;99.90;;;;;;5112813;28;19933;-71
2022/06/21 13:20:20;;;;;;;;;;;18.20;99.90;;;;;;5113213;28;19915;-71
2022/06/21 13:22:53;;;;;;;;;;;18.30;99.90;;;;;;5113087;28;20371;-71
2022/06/21 13:25:30;;;;;;;;;;;18.30;99.90;;;;;;5112739;28;19920;-71
2022/06/21 13:28:10;;;;;;;;;;;18.30;99.90;;;;;;5112709;28;20275;-71
2022/06/21 13:30:45;;;;;;;;;;;18.30;99.90;;;;;;5112701;28;19999;-71
2022/06/21 13:33:11;;;;;;;;;;;18.40;99.90;;;;;;5112709;28;19912;-71
2022/06/21 13:35:44;;;;;;;;;;;18.50;99.90;;;;;;5112121;28;19934;-71
2022/06/21 13:38:15;;;;;;;;;;;18.50;99.90;;;;;;5112610;28;19911;-71
2022/06/21 13:40:53;;;;;;;;;;;18.50;99.90;;;;;;5112650;28;19915;-71
2022/06/21 13:43:30;;;;;;;;;;;18.50;99.90;;;;;;5112176;28;19907;-71
2022/06/21 13:46:11;;;;;;;;;;;18.40;99.90;;;;;;5112081;28;19965;-71
2022/06/21 13:48:43;;;;;;;;;;;18.40;99.90;;;;;;5111931;28;19919;-71
2022/06/21 13:51:14;;;;;;;;;;;18.50;99.90;;;;;;5112246;28;19916;-71
2022/06/21 13:53:39;;;;;;;;;;;18.60;99.90;;;;;;5093329;28;20363;-71
2022/06/21 13:56:07;;;;;;;;;;;18.70;99.90;;;;;;5112249;28;19908;-72
2022/06/21 13:58:38;;;;;;;;;;;18.60;99.90;;;;;;5112257;28;19911;-71
2022/06/21 14:01:06;;;;;;;;;;;18.70;99.90;;;;;;5112007;28;20334;-71
2022/06/21 14:03:50;;;;;;;;;;;18.80;99.90;;;;;;5111885;28;20316;-72
2022/06/21 14:06:38;;;;;;;;;;;18.70;99.90;;;;;;5111984;28;19916;-71
2022/06/21 14:09:03;;;;;;;;;;;18.70;99.90;;;;;;5111667;28;19916;-71
2022/06/21 14:11:32;;;;;;;;;;;18.70;99.90;;;;;;5111481;28;19952;-72
2022/06/21 14:14:06;;;;;;;;;;;18.70;99.90;;;;;;5111937;28;19912;-72
2022/06/21 14:16:36;;;;;;;;;;;18.60;99.90;;;;;;5112138;28;19911;-72
2022/06/21 14:19:21;;;;;;;;;;;18.60;99.90;;;;;;5111891;28;20057;-72
2022/06/21 14:21:46;;;;;;;;;;;18.60;99.90;;;;;;5112371;28;19908;-71
2022/06/21 14:24:22;;;;;;;;;;;18.70;99.90;;;;;;5111961;28;19919;-72
2022/06/21 14:26:56;;;;;;;;;;;18.70;99.90;;;;;;5111954;28;20232;-72
2022/06/21 14:29:25;;;;;;;;;;;18.70;99.90;;;;;;5111863;28;19916;-71
2022/06/21 14:32:04;;;;;;;;;;;18.90;99.90;;;;;;5111844;28;19989;-71
2022/06/21 14:34:30;;;;;;;;;;;19.00;99.90;;;;;;5111952;28;19996;-71
2022/06/21 14:37:12;;;;;;;;;;;19.00;99.90;;;;;;5112113;28;20335;-71
2022/06/21 14:39:42;;;;;;;;;;;19.00;99.90;;;;;;5112128;28;19999;-72
2022/06/21 14:42:17;;;;;;;;;;;19.10;99.90;;;;;;5111093;28;19915;-70
2022/06/21 14:44:51;;;;;;;;;;;19.10;99.90;;;;;;5111406;28;19927;-72
2022/06/21 14:47:26;;;;;;;;;;;19.20;99.90;;;;;;5076165;28;19908;-71
2022/06/21 14:49:56;;;;;;;;;;;19.20;99.90;;;;;;5111569;28;20282;-71
2022/06/21 14:52:31;;;;;;;;;;;19.10;99.90;;;;;;5111289;28;19914;-71
2022/06/21 14:54:59;;;;;;;;;;;19.10;99.90;;;;;;5111588;28;19923;-71
2022/06/21 14:57:31;;;;;;;;;;;19.10;99.90;;;;;;5111456;28;19908;-70
2022/06/21 15:00:03;;;;;;;;;;;19.20;99.90;;;;;;5093122;28;19916;-71
2022/06/21 15:02:47;;;;;;;;;;;19.20;99.90;;;;;;5111613;28;19908;-72